Time;durP1;ratioP1;P1;durP2;ratioP2;P2;SDS_P1;SDS_P2;PMS_P1;PMS_P2;Temp;Humidity;BMP_temperature;BMP_pressure;BME280_temperature;BME280_humidity;BME280_pressure;Samples;Min_cycle;Max_cycle;Signal;HPM_P1;HPM_P2
2023/12/15 00:02:14;;;;;;;0.10;0.10;;;;;;;;;;4929167;29;20114;-90
2023/12/15 00:04:48;;;;;;;0.00;0.00;;;;;;;;;;4930933;29;20087;-90
2023/12/15 00:07:29;;;;;;;0.28;0.28;;;;;;;;;;4929159;29;20048;-89
2023/12/15 00:10:10;;;;;;;0.05;0.05;;;;;;;;;;4929098;29;20051;-89
2023/12/15 00:12:50;;;;;;;0.00;0.00;;;;;;;;;;4928570;29;20036;-89
2023/12/15 00:15:31;;;;;;;0.00;0.00;;;;;;;;;;4927844;29;20051;-89
2023/12/15 00:18:12;;;;;;;0.10;0.10;;;;;;;;;;4927761;29;20118;-89
2023/12/15 00:21:00;;;;;;;0.10;0.10;;;;;;;;;;4945149;29;20043;-89
2023/12/15 00:23:45;;;;;;;0.00;0.00;;;;;;;;;;4933132;29;20050;-89
2023/12/15 00:26:26;;;;;;;0.00;0.00;;;;;;;;;;4930377;29;20059;-90
2023/12/15 00:29:09;;;;;;;0.00;0.00;;;;;;;;;;4947940;29;20064;-89
2023/12/15 00:31:53;;;;;;;0.52;0.52;;;;;;;;;;4950016;29;20075;-89
2023/12/15 00:34:35;;;;;;;0.10;0.10;;;;;;;;;;4933115;29;20071;-88
2023/12/15 00:37:20;;;;;;;0.10;0.10;;;;;;;;;;4934603;29;20048;-90
2023/12/15 00:40:04;;;;;;;0.00;0.00;;;;;;;;;;4930764;29;20048;-90
2023/12/15 00:42:49;;;;;;;0.00;0.00;;;;;;;;;;4929671;29;20055;-90
2023/12/15 00:45:33;;;;;;;0.00;0.00;;;;;;;;;;4927879;29;20055;-90
2023/12/15 00:48:12;;;;;;;0.00;0.00;;;;;;;;;;4928071;29;20087;-90
2023/12/15 00:50:47;;;;;;;3.70;0.63;;;;;;;;;;4928282;29;20060;-89
2023/12/15 00:53:32;;;;;;;0.00;0.00;;;;;;;;;;4927732;29;20047;-91
2023/12/15 00:56:01;;;;;;;0.00;0.00;;;;;;;;;;4929557;29;20058;-91
2023/12/15 00:58:33;;;;;;;0.00;0.00;;;;;;;;;;4928857;29;20115;-90
2023/12/15 01:04:36;;;;;;;0.00;0.00;;;;;;;;;;4947063;29;20047;-90
2023/12/15 01:07:06;;;;;;;0.08;0.08;;;;;;;;;;4944299;29;20353;-91
2023/12/15 01:09:48;;;;;;;0.00;0.00;;;;;;;;;;4946975;29;20055;-91
2023/12/15 01:12:23;;;;;;;0.00;0.00;;;;;;;;;;4928539;29;20056;-92
2023/12/15 01:14:56;;;;;;;0.00;0.00;;;;;;;;;;4928789;29;20442;-92
2023/12/15 01:17:27;;;;;;;0.00;0.00;;;;;;;;;;4934123;29;20055;-90
2023/12/15 01:20:02;;;;;;;0.52;0.52;;;;;;;;;;4937047;29;20035;-91
2023/12/15 01:22:33;;;;;;;0.10;0.10;;;;;;;;;;4936906;29;20043;-90
2023/12/15 01:25:06;;;;;;;0.77;0.77;;;;;;;;;;4937781;29;20056;-90
2023/12/15 01:27:35;;;;;;;0.00;0.00;;;;;;;;;;4937251;29;20079;-90
2023/12/15 01:30:03;;;;;;;0.00;0.00;;;;;;;;;;4937046;29;20075;-91
2023/12/15 01:32:41;;;;;;;0.00;0.00;;;;;;;;;;4926119;29;20058;-90
2023/12/15 01:35:10;;;;;;;0.00;0.00;;;;;;;;;;4913599;29;20048;-91
2023/12/15 01:37:40;;;;;;;0.00;0.00;;;;;;;;;;4926749;29;20077;-91
2023/12/15 01:40:26;;;;;;;0.00;0.00;;;;;;;;;;4911556;29;20043;-91
2023/12/15 01:43:01;;;;;;;0.00;0.00;;;;;;;;;;4909491;29;20066;-91
2023/12/15 01:45:30;;;;;;;0.10;0.10;;;;;;;;;;4908383;29;20051;-89
2023/12/15 01:48:02;;;;;;;0.00;0.00;;;;;;;;;;4908040;29;20074;-90
2023/12/15 01:50:32;;;;;;;0.05;0.05;;;;;;;;;;4908675;29;20427;-90
2023/12/15 01:53:13;;;;;;;0.05;0.05;;;;;;;;;;4915038;29;20056;-89
2023/12/15 01:55:42;;;;;;;0.00;0.00;;;;;;;;;;4913100;29;20052;-90
2023/12/15 01:58:23;;;;;;;0.00;0.00;;;;;;;;;;4908990;29;20056;-89
2023/12/15 02:00:53;;;;;;;0.10;0.10;;;;;;;;;;4907798;29;20085;-89
2023/12/15 02:03:21;;;;;;;0.00;0.00;;;;;;;;;;4908182;29;20111;-90
2023/12/15 02:05:49;;;;;;;0.00;0.00;;;;;;;;;;4907647;29;20111;-90
2023/12/15 02:08:20;;;;;;;0.00;0.00;;;;;;;;;;4908427;29;20132;-90
2023/12/15 02:10:48;;;;;;;0.00;0.00;;;;;;;;;;4927769;29;20072;-90
2023/12/15 02:13:17;;;;;;;0.00;0.00;;;;;;;;;;4906426;29;20124;-90
2023/12/15 02:15:47;;;;;;;0.00;0.00;;;;;;;;;;4907014;29;20108;-91
2023/12/15 02:18:22;;;;;;;0.00;0.00;;;;;;;;;;4907806;29;20052;-91
2023/12/15 02:21:03;;;;;;;0.00;0.00;;;;;;;;;;4905404;29;20067;-91
2023/12/15 02:23:46;;;;;;;0.00;0.00;;;;;;;;;;4908590;29;20111;-91
2023/12/15 02:26:14;;;;;;;0.00;0.00;;;;;;;;;;4922468;29;20128;-90
2023/12/15 02:28:58;;;;;;;0.00;0.00;;;;;;;;;;4908138;29;20067;-91
2023/12/15 02:31:26;;;;;;;0.00;0.00;;;;;;;;;;4909210;29;20056;-91
2023/12/15 02:33:57;;;;;;;0.00;0.00;;;;;;;;;;4907261;29;20045;-91
2023/12/15 02:36:26;;;;;;;0.10;0.10;;;;;;;;;;4906577;29;20075;-91
2023/12/15 02:38:55;;;;;;;0.10;0.10;;;;;;;;;;4906566;29;20056;-91
2023/12/15 02:41:22;;;;;;;0.00;0.00;;;;;;;;;;4906319;29;20052;-90
2023/12/15 03:27:49;;;;;;;26.33;9.70;;;;;;;;;;5033279;23;20714;-91
2023/12/15 03:30:20;;;;;;;21.98;9.00;;;;;;;;;;4921660;29;20123;-90
2023/12/15 03:32:49;;;;;;;36.42;11.05;;;;;;;;;;4905498;29;20070;-90
2023/12/15 03:35:21;;;;;;;27.42;10.48;;;;;;;;;;4906760;29;20067;-91
2023/12/15 03:37:50;;;;;;;32.53;11.13;;;;;;;;;;4923426;29;20060;-91
2023/12/15 03:40:23;;;;;;;20.95;8.88;;;;;;;;;;4922091;29;20056;-91
2023/12/15 03:42:51;;;;;;;23.33;9.43;;;;;;;;;;4910486;29;20051;-91
2023/12/15 03:45:20;;;;;;;28.02;9.75;;;;;;;;;;4910280;29;20052;-89
2023/12/15 03:48:00;;;;;;;29.70;10.75;;;;;;;;;;4912407;29;20056;-89
2023/12/15 03:50:40;;;;;;;28.08;11.43;;;;;;;;;;4907367;29;20325;-89
2023/12/15 03:53:21;;;;;;;25.52;10.38;;;;;;;;;;4905944;29;20056;-88
2023/12/15 03:56:05;;;;;;;25.63;9.90;;;;;;;;;;4912433;29;20020;-88
2023/12/15 03:58:35;;;;;;;30.90;11.15;;;;;;;;;;4906213;29;20087;-89
2023/12/15 04:01:07;;;;;;;19.48;9.25;;;;;;;;;;4903586;29;20140;-88
2023/12/15 04:03:35;;;;;;;25.60;9.35;;;;;;;;;;4919168;29;20060;-89
2023/12/15 04:06:16;;;;;;;27.13;11.45;;;;;;;;;;4904952;29;20076;-88
2023/12/15 04:08:56;;;;;;;31.73;10.73;;;;;;;;;;4908314;29;20048;-89
2023/12/15 04:11:38;;;;;;;26.58;11.38;;;;;;;;;;4902311;29;20045;-89
2023/12/15 04:14:18;;;;;;;29.80;12.38;;;;;;;;;;4906949;29;20063;-90
2023/12/15 04:16:50;;;;;;;29.05;11.85;;;;;;;;;;4906387;29;20063;-89
2023/12/15 04:19:34;;;;;;;33.05;10.48;;;;;;;;;;4907746;29;20048;-89
2023/12/15 04:22:06;;;;;;;28.00;9.60;;;;;;;;;;4907058;29;20073;-89
2023/12/15 04:24:49;;;;;;;21.02;9.07;;;;;;;;;;4909509;29;20064;-89
2023/12/15 04:27:28;;;;;;;25.15;9.48;;;;;;;;;;4925758;29;20055;-89
2023/12/15 04:29:59;;;;;;;26.38;9.73;;;;;;;;;;4926324;29;20056;-89
2023/12/15 04:32:31;;;;;;;19.52;10.02;;;;;;;;;;4926664;29;20051;-89
2023/12/15 04:35:09;;;;;;;30.65;10.45;;;;;;;;;;4927512;29;20066;-90
2023/12/15 04:37:52;;;;;;;;;;;;;;;;;;4927622;29;20130;-89
2023/12/15 04:40:33;;;;;;;22.52;9.73;;;;;;;;;;4929207;29;19945;-91
2023/12/15 04:43:14;;;;;;;36.35;10.98;;;;;;;;;;4932611;29;20260;-88
2023/12/15 04:45:45;;;;;;;30.73;11.85;;;;;;;;;;4942824;29;20047;-89
2023/12/15 04:48:26;;;;;;;34.22;12.57;;;;;;;;;;4926306;29;20050;-88
2023/12/15 04:50:58;;;;;;;31.13;10.65;;;;;;;;;;4926057;29;20436;-88
2023/12/15 04:53:39;;;;;;;27.10;10.13;;;;;;;;;;4927343;29;20087;-89
2023/12/15 04:56:20;;;;;;;33.80;13.18;;;;;;;;;;4925763;29;20059;-88
2023/12/15 04:59:02;;;;;;;31.05;12.10;;;;;;;;;;4940761;29;20050;-89
2023/12/15 05:01:32;;;;;;;39.92;14.23;;;;;;;;;;4941816;29;20075;-88
2023/12/15 05:04:13;;;;;;;30.27;12.10;;;;;;;;;;4926437;29;20134;-90
2023/12/15 05:09:21;;;;;;;41.30;13.10;;;;;;;;;;5637643;23;20060;-89
2023/12/15 05:12:08;;;;;;;37.42;13.10;;;;;;;;;;4914613;29;20486;-89
2023/12/15 05:14:51;;;;;;;33.35;13.70;;;;;;;;;;4952473;23;20078;-89
2023/12/15 05:17:32;;;;;;;37.50;14.38;;;;;;;;;;4943487;29;20423;-90
2023/12/15 05:20:13;;;;;;;32.75;13.88;;;;;;;;;;4925218;29;20048;-91
2023/12/15 05:22:44;;;;;;;39.47;14.32;;;;;;;;;;4926927;29;20103;-91
2023/12/15 05:25:13;;;;;;;46.85;13.80;;;;;;;;;;4927088;29;20411;-90
2023/12/15 05:41:12;;;;;;;37.88;14.48;;;;;;;;;;4942133;29;20054;-90
2023/12/15 05:43:48;;;;;;;32.22;13.93;;;;;;;;;;4946121;29;20063;-90
2023/12/15 05:46:29;;;;;;;52.53;14.13;;;;;;;;;;4943466;29;20051;-91
2023/12/15 05:49:10;;;;;;;41.90;15.10;;;;;;;;;;4926562;29;20059;-91
2023/12/15 05:51:47;;;;;;;48.42;13.93;;;;;;;;;;4925669;29;20051;-91
2023/12/15 05:54:17;;;;;;;40.80;15.35;;;;;;;;;;4925711;29;20048;-90
2023/12/15 05:56:46;;;;;;;49.20;15.10;;;;;;;;;;4941750;28;20075;-91
2023/12/15 05:59:30;;;;;;;42.58;15.30;;;;;;;;;;4928985;29;20250;-90
2023/12/15 06:02:05;;;;;;;48.85;13.57;;;;;;;;;;4925606;29;20055;-91
2023/12/15 06:04:51;;;;;;;40.92;12.77;;;;;;;;;;4925212;29;20055;-92
2023/12/15 06:07:23;;;;;;;45.95;14.40;;;;;;;;;;4930709;29;20055;-90
2023/12/15 06:09:54;;;;;;;52.58;13.63;;;;;;;;;;4927641;29;20048;-90
2023/12/15 06:12:42;;;;;;;43.42;12.32;;;;;;;;;;5076821;23;20070;-92
2023/12/15 06:15:24;;;;;;;31.35;12.45;;;;;;;;;;4928552;29;20091;-91
2023/12/15 06:17:58;;;;;;;37.35;12.98;;;;;;;;;;4928880;29;20108;-91
2023/12/15 06:20:43;;;;;;;45.33;14.75;;;;;;;;;;4928210;29;20052;-91
2023/12/15 06:23:24;;;;;;;33.33;13.77;;;;;;;;;;4928384;29;20076;-91
2023/12/15 06:26:05;;;;;;;57.83;13.32;;;;;;;;;;4931993;29;20068;-91
2023/12/15 06:28:54;;;;;;;48.30;13.75;;;;;;;;;;4928948;29;20051;-91
2023/12/15 06:31:36;;;;;;;37.22;12.50;;;;;;;;;;4939582;28;20198;-92
2023/12/15 06:34:18;;;;;;;41.58;12.25;;;;;;;;;;4922968;29;20078;-92
2023/12/15 06:37:01;;;;;;;45.50;12.68;;;;;;;;;;4921459;28;20056;-91
2023/12/15 06:39:45;;;;;;;45.95;13.95;;;;;;;;;;4914706;29;20063;-91
2023/12/15 06:42:15;;;;;;;38.08;12.25;;;;;;;;;;4921832;28;20047;-92
2023/12/15 06:45:00;;;;;;;43.53;11.57;;;;;;;;;;4922988;29;20055;-91
2023/12/15 06:47:42;;;;;;;47.80;12.48;;;;;;;;;;4922226;29;20084;-90
2023/12/15 06:50:19;;;;;;;41.85;13.15;;;;;;;;;;4944375;28;20055;-91
2023/12/15 06:53:00;;;;;;;42.08;10.38;;;;;;;;;;4921882;28;20368;-91
2023/12/15 15:18:02;;;;;;;23.80;2.60;;;;;;;;;;5091822;23;19922;-90
2023/12/15 15:20:47;;;;;;;13.15;3.15;;;;;;;;;;4924690;29;20319;-92
2023/12/15 15:23:30;;;;;;;8.00;2.83;;;;;;;;;;4926437;29;20044;-90
2023/12/15 15:26:11;;;;;;;18.48;2.88;;;;;;;;;;4926063;29;20047;-91
2023/12/15 15:28:51;;;;;;;16.52;2.60;;;;;;;;;;4924970;29;20048;-92
2023/12/15 15:31:21;;;;;;;23.98;3.05;;;;;;;;;;4923541;29;20062;-91
2023/12/15 15:34:05;;;;;;;16.30;2.90;;;;;;;;;;4938051;29;20581;-92
2023/12/15 15:36:37;;;;;;;16.20;3.40;;;;;;;;;;4921787;29;20055;-92
2023/12/15 15:39:06;;;;;;;10.27;2.25;;;;;;;;;;4923079;29;20056;-91
2023/12/15 15:41:46;;;;;;;17.20;2.13;;;;;;;;;;4924740;29;20052;-90
2023/12/15 15:44:13;;;;;;;12.30;2.25;;;;;;;;;;4927167;29;20055;-91
2023/12/15 15:46:48;;;;;;;11.15;2.90;;;;;;;;;;4922683;29;20076;-91
2023/12/15 15:49:19;;;;;;;13.32;2.05;;;;;;;;;;4922318;29;20052;-91
2023/12/15 15:51:50;;;;;;;9.48;2.30;;;;;;;;;;4924078;29;20066;-91
2023/12/15 15:54:31;;;;;;;22.05;2.30;;;;;;;;;;4927247;29;20215;-91
2023/12/15 15:57:12;;;;;;;11.48;2.47;;;;;;;;;;4929947;29;20245;-90
2023/12/15 15:59:58;;;;;;;12.27;2.22;;;;;;;;;;4930278;29;20080;-90
2023/12/15 16:02:39;;;;;;;17.77;2.53;;;;;;;;;;4948235;29;20040;-91
2023/12/15 16:05:25;;;;;;;13.35;2.67;;;;;;;;;;4935159;29;20039;-91
2023/12/15 16:08:06;;;;;;;20.17;3.17;;;;;;;;;;4932227;29;20072;-90
2023/12/15 16:10:46;;;;;;;13.23;2.72;;;;;;;;;;4932438;29;20028;-90
2023/12/15 16:13:27;;;;;;;20.70;3.10;;;;;;;;;;4935026;29;20114;-92
2023/12/15 16:16:12;;;;;;;16.02;3.28;;;;;;;;;;4940650;29;20052;-91
2023/12/15 16:18:46;;;;;;;24.40;3.08;;;;;;;;;;4929629;29;20305;-92
2023/12/15 16:21:26;;;;;;;15.98;2.50;;;;;;;;;;4946646;29;20476;-92
2023/12/15 16:23:55;;;;;;;17.88;2.75;;;;;;;;;;4930747;29;20063;-92
2023/12/15 16:26:26;;;;;;;9.60;2.10;;;;;;;;;;4931953;29;20099;-91
2023/12/15 16:28:54;;;;;;;12.95;2.33;;;;;;;;;;4925761;29;20066;-91
2023/12/15 16:31:35;;;;;;;9.52;1.95;;;;;;;;;;4926047;29;20133;-92
2023/12/15 16:34:09;;;;;;;28.48;4.20;;;;;;;;;;4925672;29;20051;-90
2023/12/15 16:36:49;;;;;;;20.83;3.40;;;;;;;;;;4926227;29;20051;-91
2023/12/15 16:39:23;;;;;;;22.13;4.05;;;;;;;;;;4925820;29;20047;-91
2023/12/15 16:41:53;;;;;;;16.65;2.90;;;;;;;;;;4925565;29;20080;-91
2023/12/15 16:44:21;;;;;;;22.55;3.55;;;;;;;;;;4942358;29;20158;-91
2023/12/15 16:46:55;;;;;;;10.13;2.42;;;;;;;;;;4926815;29;20044;-91
2023/12/15 16:49:31;;;;;;;18.17;3.50;;;;;;;;;;4926626;29;20225;-92
2023/12/15 16:52:13;;;;;;;21.00;3.45;;;;;;;;;;4926040;29;20054;-91
2023/12/15 16:54:46;;;;;;;18.15;3.35;;;;;;;;;;4926100;29;20528;-91
2023/12/15 16:57:19;;;;;;;36.17;4.00;;;;;;;;;;4926608;29;20071;-92
2023/12/15 16:59:50;;;;;;;21.60;3.33;;;;;;;;;;4926274;29;20054;-91
2023/12/15 17:02:21;;;;;;;16.15;3.08;;;;;;;;;;4925323;29;20048;-91
2023/12/15 17:04:49;;;;;;;19.58;3.05;;;;;;;;;;4926017;29;20208;-91
2023/12/15 17:07:18;;;;;;;16.88;2.90;;;;;;;;;;4924271;29;20459;-91
2023/12/15 17:09:51;;;;;;;12.10;3.58;;;;;;;;;;4925101;29;20253;-91
2023/12/15 17:12:21;;;;;;;19.10;4.22;;;;;;;;;;4926462;29;20059;-92
2023/12/15 17:15:06;;;;;;;16.83;4.00;;;;;;;;;;4927501;29;20082;-90
2023/12/15 17:17:38;;;;;;;22.33;3.92;;;;;;;;;;4926691;29;20048;-91
2023/12/15 17:20:19;;;;;;;11.48;2.85;;;;;;;;;;4927657;29;20142;-90
2023/12/15 17:23:00;;;;;;;17.23;2.97;;;;;;;;;;4938882;29;20061;-89
2023/12/15 17:25:43;;;;;;;19.75;4.22;;;;;;;;;;4929202;29;20052;-89
2023/12/15 17:28:23;;;;;;;19.55;2.65;;;;;;;;;;4932438;29;20047;-90
2023/12/15 17:31:05;;;;;;;14.90;2.90;;;;;;;;;;4928485;29;20209;-90
2023/12/15 17:33:46;;;;;;;18.75;3.88;;;;;;;;;;4925782;29;20218;-90
2023/12/15 17:36:27;;;;;;;27.73;3.08;;;;;;;;;;4926884;29;20051;-91
2023/12/15 17:39:34;;;;;;;19.30;4.82;;;;;;;;;;5070916;27;24430;-91
2023/12/15 17:42:05;;;;;;;19.20;3.35;;;;;;;;;;5070336;27;20060;-91
2023/12/15 17:44:46;;;;;;;21.77;4.90;;;;;;;;;;5054967;27;20052;-91
2023/12/15 17:47:15;;;;;;;17.33;3.97;;;;;;;;;;5051948;28;20068;-90
2023/12/15 17:49:56;;;;;;;25.60;4.10;;;;;;;;;;5052563;27;20049;-89
2023/12/15 17:52:43;;;;;;;23.13;3.42;;;;;;;;;;5054875;28;20085;-89
2023/12/15 17:55:24;;;;;;;25.85;6.40;;;;;;;;;;5056325;28;20042;-89
2023/12/15 17:58:05;;;;;;;21.92;8.50;;;;;;;;;;5056775;27;20428;-90
2023/12/15 18:00:35;;;;;;;8.60;2.65;;;;;;;;;;5051789;28;20328;-90
2023/12/15 18:03:16;;;;;;;52.90;15.73;;;;;;;;;;5051734;28;20036;-90
2023/12/15 18:05:58;;;;;;;29.75;6.03;;;;;;;;;;5065852;28;20044;-90
2023/12/15 18:08:39;;;;;;;37.00;16.70;;;;;;;;;;5051540;27;20076;-91
2023/12/15 18:11:20;;;;;;;16.98;5.03;;;;;;;;;;5051673;27;20052;-90
2023/12/15 18:13:48;;;;;;;8.80;3.75;;;;;;;;;;5049929;27;20049;-89
2023/12/15 18:16:22;;;;;;;23.90;6.28;;;;;;;;;;5050438;28;20045;-90
2023/12/15 18:19:03;;;;;;;22.92;10.63;;;;;;;;;;5050625;27;20044;-90
2023/12/15 18:21:44;;;;;;;39.10;12.00;;;;;;;;;;5051279;28;20055;-90
2023/12/15 18:24:25;;;;;;;11.73;3.28;;;;;;;;;;5064411;28;20108;-90
2023/12/15 18:27:06;;;;;;;16.60;4.85;;;;;;;;;;5051568;27;20084;-90
2023/12/15 18:29:39;;;;;;;20.58;3.80;;;;;;;;;;5053434;28;20086;-90
2023/12/15 18:35:11;;;;;;;14.35;4.13;;;;;;;;;;5265169;22;20058;-91
2023/12/15 18:37:53;;;;;;;20.98;4.05;;;;;;;;;;5102081;28;20086;-90
2023/12/15 18:40:24;;;;;;;22.73;6.40;;;;;;;;;;5101921;28;20032;-89
2023/12/15 18:43:02;;;;;;;30.10;2.95;;;;;;;;;;5101973;28;20206;-89
2023/12/15 18:45:44;;;;;;;14.88;3.00;;;;;;;;;;5099796;28;20032;-90
2023/12/15 18:48:16;;;;;;;13.07;3.47;;;;;;;;;;5101050;28;20125;-90
2023/12/15 18:50:52;;;;;;;16.83;3.08;;;;;;;;;;5083721;28;20045;-91
2023/12/15 18:53:33;;;;;;;5.50;2.42;;;;;;;;;;5086458;28;20234;-90
2023/12/15 18:56:15;;;;;;;15.40;3.72;;;;;;;;;;5088447;28;20132;-91
2023/12/15 18:58:52;;;;;;;16.20;6.53;;;;;;;;;;5084855;28;20070;-90
2023/12/15 19:01:34;;;;;;;28.42;6.43;;;;;;;;;;5081079;28;20112;-90
2023/12/15 19:04:14;;;;;;;11.60;2.88;;;;;;;;;;5083594;28;20052;-90
2023/12/15 19:06:56;;;;;;;18.10;4.22;;;;;;;;;;5082153;28;20086;-90
2023/12/15 19:09:37;;;;;;;24.90;6.10;;;;;;;;;;5081905;28;20178;-90
2023/12/15 19:12:14;;;;;;;17.38;3.50;;;;;;;;;;5080468;28;20040;-90
2023/12/15 19:15:01;;;;;;;12.90;3.83;;;;;;;;;;5079264;28;20344;-89
2023/12/15 19:17:41;;;;;;;;;;;;;;;;;;5080581;28;20056;-90
2023/12/15 19:20:23;;;;;;;42.75;15.07;;;;;;;;;;5079568;28;20389;-89
2023/12/15 19:23:04;;;;;;;18.60;5.45;;;;;;;;;;5080174;28;20053;-90
2023/12/15 19:25:52;;;;;;;25.27;3.58;;;;;;;;;;5081637;28;20040;-90
2023/12/15 19:28:38;;;;;;;17.20;4.53;;;;;;;;;;5080409;28;20130;-90
2023/12/15 19:31:19;;;;;;;36.72;5.15;;;;;;;;;;5080075;28;20063;-90
2023/12/15 19:34:01;;;;;;;14.10;3.30;;;;;;;;;;5080065;28;20103;-90
2023/12/15 19:36:43;;;;;;;11.65;3.15;;;;;;;;;;5079406;28;20032;-91
2023/12/15 19:39:24;;;;;;;21.90;2.95;;;;;;;;;;5078906;28;20064;-90
2023/12/15 19:41:52;;;;;;;13.82;4.43;;;;;;;;;;5082790;28;20052;-91
2023/12/15 19:44:32;;;;;;;17.92;3.45;;;;;;;;;;5078891;28;20099;-90
2023/12/15 19:47:14;;;;;;;20.00;4.13;;;;;;;;;;5081066;28;20055;-90
2023/12/15 19:50:00;;;;;;;23.05;4.25;;;;;;;;;;5081015;28;20068;-89
2023/12/15 19:52:43;;;;;;;26.35;3.92;;;;;;;;;;5081119;28;20032;-89
2023/12/15 19:55:23;;;;;;;25.25;3.80;;;;;;;;;;5081759;28;20048;-90
2023/12/15 19:58:07;;;;;;;19.20;3.17;;;;;;;;;;5081615;28;20074;-90
2023/12/15 20:00:55;;;;;;;23.23;3.17;;;;;;;;;;5080823;28;20036;-89
2023/12/15 20:03:37;;;;;;;19.38;5.53;;;;;;;;;;5077527;28;20072;-90
2023/12/15 20:06:19;;;;;;;24.75;4.40;;;;;;;;;;5078678;28;20285;-90
2023/12/15 20:09:05;;;;;;;14.30;3.10;;;;;;;;;;5080245;28;20048;-91
2023/12/15 20:11:38;;;;;;;17.85;3.70;;;;;;;;;;5081888;28;20223;-91
2023/12/15 20:14:19;;;;;;;27.80;2.95;;;;;;;;;;5082694;28;20072;-89
2023/12/15 20:17:02;;;;;;;27.50;3.67;;;;;;;;;;5088461;28;20043;-90
2023/12/15 20:19:47;;;;;;;14.65;3.45;;;;;;;;;;5080170;28;20336;-91
2023/12/15 20:22:38;;;;;;;43.05;8.13;;;;;;;;;;5082669;28;20553;-90
2023/12/15 20:25:19;;;;;;;8.60;2.03;;;;;;;;;;5079644;28;20067;-90
2023/12/15 20:27:59;;;;;;;19.88;3.95;;;;;;;;;;5081698;28;20032;-90
2023/12/15 20:30:30;;;;;;;11.07;2.88;;;;;;;;;;5079591;28;20118;-91
2023/12/15 20:33:14;;;;;;;23.80;4.05;;;;;;;;;;5078231;28;20088;-91
2023/12/15 20:35:55;;;;;;;18.20;3.53;;;;;;;;;;5082049;28;20072;-89
2023/12/15 20:38:37;;;;;;;17.25;3.38;;;;;;;;;;5074796;28;20063;-89
2023/12/15 20:41:19;;;;;;;25.40;3.08;;;;;;;;;;5074487;28;20057;-90
2023/12/15 20:44:07;;;;;;;16.02;3.80;;;;;;;;;;5074194;28;20108;-90
2023/12/15 20:46:51;;;;;;;14.65;2.83;;;;;;;;;;5073156;28;20071;-90
2023/12/15 20:49:39;;;;;;;12.32;2.75;;;;;;;;;;5061375;28;20075;-90
2023/12/15 20:52:16;;;;;;;10.98;2.50;;;;;;;;;;5076002;28;20056;-89
2023/12/15 20:54:57;;;;;;;10.97;3.87;;;;;;;;;;5074302;28;20056;-89
2023/12/15 20:57:39;;;;;;;23.52;3.55;;;;;;;;;;5075430;28;20946;-89
2023/12/15 21:00:23;;;;;;;29.35;3.78;;;;;;;;;;5069847;28;20488;-90
2023/12/15 21:03:04;;;;;;;21.75;3.70;;;;;;;;;;5074011;28;20041;-91
2023/12/15 21:05:33;;;;;;;8.25;3.38;;;;;;;;;;5077050;28;20116;-91
2023/12/15 21:08:17;;;;;;;23.63;4.28;;;;;;;;;;5075562;28;20115;-90
2023/12/15 21:10:58;;;;;;;9.07;2.65;;;;;;;;;;5059826;28;20144;-90
2023/12/15 21:13:41;;;;;;;33.92;3.88;;;;;;;;;;5059779;28;20118;-90
2023/12/15 21:16:26;;;;;;;33.03;3.67;;;;;;;;;;5063117;28;20048;-90
2023/12/15 21:19:25;;;;;;;24.77;3.53;;;;;;;;;;5064161;28;20069;-90
2023/12/15 21:22:08;;;;;;;7.60;3.08;;;;;;;;;;5060923;28;20044;-91
2023/12/15 21:24:51;;;;;;;17.23;3.95;;;;;;;;;;5062139;28;20332;-89
2023/12/15 21:27:34;;;;;;;11.30;2.90;;;;;;;;;;5250487;22;20052;-89
2023/12/15 21:30:17;;;;;;;19.63;4.00;;;;;;;;;;5067678;28;20048;-90
2023/12/15 21:32:58;;;;;;;13.45;2.97;;;;;;;;;;5066118;28;20041;-91
2023/12/15 21:35:44;;;;;;;13.23;3.92;;;;;;;;;;5068211;28;20131;-92
2023/12/15 21:38:25;;;;;;;31.13;4.53;;;;;;;;;;5069899;28;20212;-94
2023/12/15 21:41:03;;;;;;;31.20;3.28;;;;;;;;;;5070172;28;20071;-92
2023/12/15 21:43:42;;;;;;;10.88;3.55;;;;;;;;;;5069463;28;20192;-92
2023/12/15 21:46:15;;;;;;;15.18;3.08;;;;;;;;;;5069451;28;20037;-92
2023/12/15 21:48:45;;;;;;;19.30;3.95;;;;;;;;;;5068881;28;20037;-91
2023/12/15 21:51:30;;;;;;;24.00;4.18;;;;;;;;;;5069536;28;20041;-90
2023/12/15 21:54:10;;;;;;;10.30;2.58;;;;;;;;;;5067619;28;20020;-89
2023/12/15 21:56:51;;;;;;;8.18;2.70;;;;;;;;;;5060600;28;20072;-90
2023/12/15 21:59:36;;;;;;;15.43;4.15;;;;;;;;;;5057520;28;20041;-89
2023/12/15 22:02:05;;;;;;;8.57;2.65;;;;;;;;;;5060295;28;20076;-91
2023/12/15 22:04:33;;;;;;;12.23;3.38;;;;;;;;;;5060948;28;20059;-90
2023/12/15 22:07:03;;;;;;;24.45;3.33;;;;;;;;;;5058883;28;20099;-90
2023/12/15 22:09:44;;;;;;;22.55;3.67;;;;;;;;;;5058597;28;20052;-90
2023/12/15 22:12:25;;;;;;;14.77;3.05;;;;;;;;;;5058894;28;20060;-91
2023/12/15 22:14:56;;;;;;;15.30;3.08;;;;;;;;;;5061776;28;20068;-91
2023/12/15 22:17:25;;;;;;;17.63;3.55;;;;;;;;;;5060888;28;20044;-90
2023/12/15 22:19:57;;;;;;;19.10;3.50;;;;;;;;;;5061210;28;20064;-90
2023/12/15 22:22:40;;;;;;;18.10;3.40;;;;;;;;;;5059877;28;20075;-92
2023/12/15 22:25:09;;;;;;;11.07;3.30;;;;;;;;;;5061491;28;20048;-91
2023/12/15 22:27:52;;;;;;;23.42;3.47;;;;;;;;;;5061332;28;20115;-91
2023/12/15 22:30:41;;;;;;;14.32;3.03;;;;;;;;;;5063662;28;20079;-91
2023/12/15 22:33:10;;;;;;;12.98;3.55;;;;;;;;;;5063413;28;20425;-91
2023/12/15 22:35:40;;;;;;;23.75;3.85;;;;;;;;;;5063722;28;20052;-91
2023/12/15 22:38:14;;;;;;;12.98;3.65;;;;;;;;;;5064688;28;20057;-91
2023/12/15 22:40:55;;;;;;;8.23;3.45;;;;;;;;;;5063284;28;20041;-92
2023/12/15 22:43:26;;;;;;;18.00;3.97;;;;;;;;;;5062850;28;20055;-91
2023/12/15 22:46:06;;;;;;;16.20;3.10;;;;;;;;;;5061519;28;20079;-91
2023/12/15 22:48:41;;;;;;;19.38;3.17;;;;;;;;;;5063819;28;20120;-91
2023/12/15 22:51:22;;;;;;;18.40;3.42;;;;;;;;;;5063453;28;20053;-91
2023/12/15 22:53:50;;;;;;;12.07;2.95;;;;;;;;;;5062968;28;20083;-92
2023/12/15 22:56:20;;;;;;;17.88;3.63;;;;;;;;;;5064491;28;20064;-91
2023/12/15 22:58:53;;;;;;;12.93;4.07;;;;;;;;;;5062883;28;20067;-91
2023/12/15 23:01:23;;;;;;;10.95;3.63;;;;;;;;;;5063308;28;20072;-91
2023/12/15 23:04:03;;;;;;;24.98;2.83;;;;;;;;;;5063562;28;20238;-91
2023/12/15 23:06:41;;;;;;;25.13;2.88;;;;;;;;;;5069275;28;20067;-91
2023/12/15 23:09:22;;;;;;;16.55;2.70;;;;;;;;;;5063506;28;20135;-92
2023/12/15 23:12:07;;;;;;;25.95;3.45;;;;;;;;;;5063197;28;20554;-90
2023/12/15 23:14:48;;;;;;;26.88;3.55;;;;;;;;;;5065515;28;20045;-91
2023/12/15 23:34:10;;;;;;;40.00;4.53;;;;;;;;;;5314592;23;20061;-91
2023/12/15 23:36:44;;;;;;;22.33;3.67;;;;;;;;;;5004998;28;20050;-92
2023/12/15 23:39:17;;;;;;;17.15;2.65;;;;;;;;;;4988181;28;20057;-92
2023/12/15 23:41:44;;;;;;;10.23;2.40;;;;;;;;;;4989369;28;20054;-92
2023/12/15 23:44:13;;;;;;;7.63;3.45;;;;;;;;;;4990080;28;20061;-91
2023/12/15 23:46:52;;;;;;;12.07;3.83;;;;;;;;;;4990463;28;20117;-91
2023/12/15 23:49:25;;;;;;;19.08;3.85;;;;;;;;;;5005551;28;20078;-91
2023/12/15 23:51:54;;;;;;;17.05;3.80;;;;;;;;;;5006498;28;20050;-92
2023/12/15 23:54:27;;;;;;;11.23;3.78;;;;;;;;;;5008008;28;20061;-90
2023/12/15 23:56:56;;;;;;;10.88;3.22;;;;;;;;;;5008329;28;20038;-91
2023/12/15 23:59:24;;;;;;;23.73;3.72;;;;;;;;;;4991692;28;20052;-92
